Strona główna
METAR-TAF:

METAR-TAF

Lotnisko :

Port lotniczy Teheran-Mehrabad

Teheran, Iran

Szerokość geograficzna: 35-41N, Długość geograficzna: 051-21E, wysokość: 1204 m

Aktualna obserwacja pogody

Raport powstał 36 minut temu, godzina 11:00 UTC
Wiatr 4 kt od wschodnio-południowy wschód
Temperatura 12°C
Wilgotność 44%
Ciśnienie 1024 hPa
Widzialność: 8000 m
Mało chmury na wysokości 4000 ft

METAR: OIII 191100Z 12004KT 8000 FEW040 12/M00 Q1024 A3025 NOSIG

czas: 15:06 (11:36 UTC)

Prognoza

Raport powstał 6 godziny i 6 minut temu, godzina 05:30 UTC
Prognoza ważna od 19 godzina 06 UTC do 20 godzina 12 UTC
Wiatr 6 kt od wschodnio-południowy wschód
Widzialność: 8000 m

TAF: OIII 190530Z 1906/2012 11003MPS 8000 NSC

Obserwacja i prognoza pogody dla ponad 4000 lotnisk (raport METAR i TAF).

Dostępne stacje oznaczono żółtymi i czerwonymi punktami na mapie.

Najedź kursorem aby zobaczyć nazwę stacji.

Kliknij aby zobaczyć obserwacje i prognozy pogody.

Aby zmienić mapę: kliknij na zielony przycisk z czarnym krzyżykiem, aby powiększyć; na zielony przycisk z myślnikiem, aby pomniejszyć; na zielone strzałki, aby przejść do map sąsiednich.


METAR-TAF: